sensor_id;sensor_type;location;lat;lon;timestamp;temperature;humidity
9973;DHT22;5027;53.560;10.062;2022-11-20T00:01:03;9.60;1.00
9973;DHT22;5027;53.560;10.062;2022-11-20T00:03:30;9.70;1.00
9973;DHT22;5027;53.560;10.062;2022-11-20T00:06:05;9.60;1.00
9973;DHT22;5027;53.560;10.062;2022-11-20T00:08:32;9.60;1.00
9973;DHT22;5027;53.560;10.062;2022-11-20T00:11:13;9.50;1.00
9973;DHT22;5027;53.560;10.062;2022-11-20T00:13:50;9.50;1.00
9973;DHT22;5027;53.560;10.062;2022-11-20T00:16:19;9.50;1.00
9973;DHT22;5027;53.560;10.062;2022-11-20T00:18:46;9.60;1.00
9973;DHT22;5027;53.560;10.062;2022-11-20T00:21:14;9.60;1.00
9973;DHT22;5027;53.560;10.062;2022-11-20T00:23:42;9.60;1.00
9973;DHT22;5027;53.560;10.062;2022-11-20T00:26:17;9.60;1.00
9973;DHT22;5027;53.560;10.062;2022-11-20T00:28:58;9.60;1.00
9973;DHT22;5027;53.560;10.062;2022-11-20T00:31:26;9.60;1.00
9973;DHT22;5027;53.560;10.062;2022-11-20T00:33:54;9.70;1.00
9973;DHT22;5027;53.560;10.062;2022-11-20T00:36:25;9.60;1.00
9973;DHT22;5027;53.560;10.062;2022-11-20T00:38:55;9.50;1.00
9973;DHT22;5027;53.560;10.062;2022-11-20T00:41:23;9.50;1.00
9973;DHT22;5027;53.560;10.062;2022-11-20T00:43:54;9.60;1.00
9973;DHT22;5027;53.560;10.062;2022-11-20T00:46:26;9.60;1.00
9973;DHT22;5027;53.560;10.062;2022-11-20T00:48:56;9.60;1.00
9973;DHT22;5027;53.560;10.062;2022-11-20T00:51:25;9.50;1.00
9973;DHT22;5027;53.560;10.062;2022-11-20T00:53:54;9.60;1.00
9973;DHT22;5027;53.560;10.062;2022-11-20T00:56:20;9.50;1.00
9973;DHT22;5027;53.560;10.062;2022-11-20T00:58:48;9.50;1.00
9973;DHT22;5027;53.560;10.062;2022-11-20T01:01:21;9.60;1.00
9973;DHT22;5027;53.560;10.062;2022-11-20T01:03:50;9.50;1.00
9973;DHT22;5027;53.560;10.062;2022-11-20T01:08:57;9.50;1.00
9973;DHT22;5027;53.560;10.062;2022-11-20T01:11:29;9.50;1.00
9973;DHT22;5027;53.560;10.062;2022-11-20T01:13:57;9.60;1.00
9973;DHT22;5027;53.560;10.062;2022-11-20T01:16:31;9.50;1.00
9973;DHT22;5027;53.560;10.062;2022-11-20T01:19:07;9.50;1.00
9973;DHT22;5027;53.560;10.062;2022-11-20T01:21:36;9.50;1.00
9973;DHT22;5027;53.560;10.062;2022-11-20T01:24:08;9.50;1.00
9973;DHT22;5027;53.560;10.062;2022-11-20T01:26:37;9.50;1.00
9973;DHT22;5027;53.560;10.062;2022-11-20T01:29:21;9.60;1.00
9973;DHT22;5027;53.560;10.062;2022-11-20T01:31:49;9.50;1.00
9973;DHT22;5027;53.560;10.062;2022-11-20T01:34:18;9.60;1.00
9973;DHT22;5027;53.560;10.062;2022-11-20T01:36:45;9.60;1.00
9973;DHT22;5027;53.560;10.062;2022-11-20T01:39:17;9.60;1.00
9973;DHT22;5027;53.560;10.062;2022-11-20T01:41:46;9.50;1.00
9973;DHT22;5027;53.560;10.062;2022-11-20T01:44:49;9.60;1.00
9973;DHT22;5027;53.560;10.062;2022-11-20T01:47:24;9.50;1.00
9973;DHT22;5027;53.560;10.062;2022-11-20T01:49:56;9.50;1.00
9973;DHT22;5027;53.560;10.062;2022-11-20T01:52:34;9.50;1.00
9973;DHT22;5027;53.560;10.062;2022-11-20T01:55:13;9.40;1.00
9973;DHT22;5027;53.560;10.062;2022-11-20T01:57:41;9.40;1.00
9973;DHT22;5027;53.560;10.062;2022-11-20T02:00:11;9.40;1.00
9973;DHT22;5027;53.560;10.062;2022-11-20T02:02:41;9.30;1.00
9973;DHT22;5027;53.560;10.062;2022-11-20T02:07:46;9.40;1.00
9973;DHT22;5027;53.560;10.062;2022-11-20T02:10:14;9.40;1.00
9973;DHT22;5027;53.560;10.062;2022-11-20T02:12:41;9.50;1.00
9973;DHT22;5027;53.560;10.062;2022-11-20T02:15:26;9.40;1.00
9973;DHT22;5027;53.560;10.062;2022-11-20T02:17:56;9.40;1.00
9973;DHT22;5027;53.560;10.062;2022-11-20T02:20:22;9.50;1.00
9973;DHT22;5027;53.560;10.062;2022-11-20T02:23:24;9.40;1.00
9973;DHT22;5027;53.560;10.062;2022-11-20T02:25:54;9.40;1.00
9973;DHT22;5027;53.560;10.062;2022-11-20T02:28:22;9.50;1.00
9973;DHT22;5027;53.560;10.062;2022-11-20T02:30:48;9.50;1.00
9973;DHT22;5027;53.560;10.062;2022-11-20T02:33:15;9.50;1.00
9973;DHT22;5027;53.560;10.062;2022-11-20T02:35:46;9.50;1.00
9973;DHT22;5027;53.560;10.062;2022-11-20T02:38:13;9.50;1.00
9973;DHT22;5027;53.560;10.062;2022-11-20T02:40:41;9.50;1.00
9973;DHT22;5027;53.560;10.062;2022-11-20T02:43:08;9.40;1.00
9973;DHT22;5027;53.560;10.062;2022-11-20T02:45:34;9.40;1.00
9973;DHT22;5027;53.560;10.062;2022-11-20T02:48:01;9.40;1.00
9973;DHT22;5027;53.560;10.062;2022-11-20T02:50:28;9.40;1.00
9973;DHT22;5027;53.560;10.062;2022-11-20T02:52:54;9.30;1.00
9973;DHT22;5027;53.560;10.062;2022-11-20T02:55:21;9.30;1.00
9973;DHT22;5027;53.560;10.062;2022-11-20T02:57:48;9.20;1.00
9973;DHT22;5027;53.560;10.062;2022-11-20T03:00:14;9.20;1.00
9973;DHT22;5027;53.560;10.062;2022-11-20T03:02:41;9.30;1.00
9973;DHT22;5027;53.560;10.062;2022-11-20T03:05:08;9.40;1.00
9973;DHT22;5027;53.560;10.062;2022-11-20T03:07:34;9.40;1.00
9973;DHT22;5027;53.560;10.062;2022-11-20T03:10:01;9.40;1.00
9973;DHT22;5027;53.560;10.062;2022-11-20T03:12:28;9.50;1.00
9973;DHT22;5027;53.560;10.062;2022-11-20T03:14:54;9.50;1.00
9973;DHT22;5027;53.560;10.062;2022-11-20T03:17:21;9.30;1.00
9973;DHT22;5027;53.560;10.062;2022-11-20T03:19:48;9.30;1.00
9973;DHT22;5027;53.560;10.062;2022-11-20T03:22:14;9.30;1.00
9973;DHT22;5027;53.560;10.062;2022-11-20T03:24:41;9.30;1.00
9973;DHT22;5027;53.560;10.062;2022-11-20T03:27:08;9.40;1.00
9973;DHT22;5027;53.560;10.062;2022-11-20T03:29:37;9.40;1.00
9973;DHT22;5027;53.560;10.062;2022-11-20T03:32:04;9.40;1.00
9973;DHT22;5027;53.560;10.062;2022-11-20T03:34:31;9.40;1.00
9973;DHT22;5027;53.560;10.062;2022-11-20T03:36:57;9.40;1.00
9973;DHT22;5027;53.560;10.062;2022-11-20T03:39:24;9.40;1.00
9973;DHT22;5027;53.560;10.062;2022-11-20T03:41:51;9.40;1.00
9973;DHT22;5027;53.560;10.062;2022-11-20T03:44:21;9.40;1.00
9973;DHT22;5027;53.560;10.062;2022-11-20T03:46:47;9.30;1.00
9973;DHT22;5027;53.560;10.062;2022-11-20T03:49:14;9.30;1.00
9973;DHT22;5027;53.560;10.062;2022-11-20T03:51:41;9.30;1.00
9973;DHT22;5027;53.560;10.062;2022-11-20T03:54:08;9.40;1.00
9973;DHT22;5027;53.560;10.062;2022-11-20T03:56:37;9.40;1.00
9973;DHT22;5027;53.560;10.062;2022-11-20T03:59:05;9.40;1.00
9973;DHT22;5027;53.560;10.062;2022-11-20T04:01:34;9.30;1.00
9973;DHT22;5027;53.560;10.062;2022-11-20T04:04:01;9.30;1.00
9973;DHT22;5027;53.560;10.062;2022-11-20T04:06:36;9.30;1.00
9973;DHT22;5027;53.560;10.062;2022-11-20T04:09:04;9.30;1.00
9973;DHT22;5027;53.560;10.062;2022-11-20T04:11:32;9.30;1.00
9973;DHT22;5027;53.560;10.062;2022-11-20T04:14:01;9.20;1.00
9973;DHT22;5027;53.560;10.062;2022-11-20T04:16:35;9.30;1.00
9973;DHT22;5027;53.560;10.062;2022-11-20T04:19:05;9.30;1.00
9973;DHT22;5027;53.560;10.062;2022-11-20T04:21:32;9.30;1.00
9973;DHT22;5027;53.560;10.062;2022-11-20T04:23:59;9.30;1.00
9973;DHT22;5027;53.560;10.062;2022-11-20T04:26:27;9.30;1.00
9973;DHT22;5027;53.560;10.062;2022-11-20T04:28:54;9.30;1.00
9973;DHT22;5027;53.560;10.062;2022-11-20T04:31:27;9.30;1.00
9973;DHT22;5027;53.560;10.062;2022-11-20T04:33:54;9.20;1.00
9973;DHT22;5027;53.560;10.062;2022-11-20T04:36:23;9.30;1.00
9973;DHT22;5027;53.560;10.062;2022-11-20T04:38:51;9.20;1.00
9973;DHT22;5027;53.560;10.062;2022-11-20T04:41:25;9.10;1.00
9973;DHT22;5027;53.560;10.062;2022-11-20T04:43:54;9.20;1.00
9973;DHT22;5027;53.560;10.062;2022-11-20T04:46:27;9.30;1.00
9973;DHT22;5027;53.560;10.062;2022-11-20T04:48:54;9.30;1.00
9973;DHT22;5027;53.560;10.062;2022-11-20T04:51:20;9.30;1.00
9973;DHT22;5027;53.560;10.062;2022-11-20T04:53:47;9.30;1.00
9973;DHT22;5027;53.560;10.062;2022-11-20T04:56:14;9.30;1.00
9973;DHT22;5027;53.560;10.062;2022-11-20T04:58:42;9.30;1.00
9973;DHT22;5027;53.560;10.062;2022-11-20T05:01:14;9.40;1.00
9973;DHT22;5027;53.560;10.062;2022-11-20T05:03:41;9.40;1.00
9973;DHT22;5027;53.560;10.062;2022-11-20T05:06:10;9.40;1.00
9973;DHT22;5027;53.560;10.062;2022-11-20T05:08:37;9.40;1.00
9973;DHT22;5027;53.560;10.062;2022-11-20T05:11:12;9.40;1.00
9973;DHT22;5027;53.560;10.062;2022-11-20T05:13:40;9.30;1.00
9973;DHT22;5027;53.560;10.062;2022-11-20T05:16:15;9.30;1.00
9973;DHT22;5027;53.560;10.062;2022-11-20T05:18:43;9.30;1.00
9973;DHT22;5027;53.560;10.062;2022-11-20T05:21:11;9.20;1.00
9973;DHT22;5027;53.560;10.062;2022-11-20T05:23:39;9.10;1.00
9973;DHT22;5027;53.560;10.062;2022-11-20T05:26:07;9.10;1.00
9973;DHT22;5027;53.560;10.062;2022-11-20T05:28:34;9.10;1.00
9973;DHT22;5027;53.560;10.062;2022-11-20T05:31:09;9.20;1.00
9973;DHT22;5027;53.560;10.062;2022-11-20T05:33:37;9.10;1.00
9973;DHT22;5027;53.560;10.062;2022-11-20T05:36:06;9.10;1.00
9973;DHT22;5027;53.560;10.062;2022-11-20T05:38:33;9.20;1.00
9973;DHT22;5027;53.560;10.062;2022-11-20T05:41:13;9.20;1.00
9973;DHT22;5027;53.560;10.062;2022-11-20T05:43:41;9.10;1.00
9973;DHT22;5027;53.560;10.062;2022-11-20T05:46:11;9.00;1.00
9973;DHT22;5027;53.560;10.062;2022-11-20T05:48:39;9.10;1.00
9973;DHT22;5027;53.560;10.062;2022-11-20T05:51:08;9.00;1.00
9973;DHT22;5027;53.560;10.062;2022-11-20T05:53:36;9.00;1.00
9973;DHT22;5027;53.560;10.062;2022-11-20T05:56:05;9.00;1.00
9973;DHT22;5027;53.560;10.062;2022-11-20T05:58:33;9.20;1.00
9973;DHT22;5027;53.560;10.062;2022-11-20T06:03:34;9.20;1.00
9973;DHT22;5027;53.560;10.062;2022-11-20T06:06:02;9.10;1.00
9973;DHT22;5027;53.560;10.062;2022-11-20T06:08:29;9.00;1.00
9973;DHT22;5027;53.560;10.062;2022-11-20T06:10:55;8.90;1.00
9973;DHT22;5027;53.560;10.062;2022-11-20T06:13:23;9.00;1.00
9973;DHT22;5027;53.560;10.062;2022-11-20T06:15:50;9.00;1.00
9973;DHT22;5027;53.560;10.062;2022-11-20T06:18:17;9.00;1.00
9973;DHT22;5027;53.560;10.062;2022-11-20T06:20:44;9.00;1.00
9973;DHT22;5027;53.560;10.062;2022-11-20T06:23:12;9.00;1.00
9973;DHT22;5027;53.560;10.062;2022-11-20T06:25:40;9.10;1.00
9973;DHT22;5027;53.560;10.062;2022-11-20T06:28:08;9.10;1.00
9973;DHT22;5027;53.560;10.062;2022-11-20T06:30:35;9.00;1.00
9973;DHT22;5027;53.560;10.062;2022-11-20T06:33:02;9.20;1.00
9973;DHT22;5027;53.560;10.062;2022-11-20T06:35:29;9.20;1.00
9973;DHT22;5027;53.560;10.062;2022-11-20T06:37:55;9.10;1.00
9973;DHT22;5027;53.560;10.062;2022-11-20T06:40:22;9.20;1.00
9973;DHT22;5027;53.560;10.062;2022-11-20T06:42:49;9.20;1.00
9973;DHT22;5027;53.560;10.062;2022-11-20T06:45:16;9.20;1.00
9973;DHT22;5027;53.560;10.062;2022-11-20T06:47:42;9.20;1.00
9973;DHT22;5027;53.560;10.062;2022-11-20T06:50:09;9.20;1.00
9973;DHT22;5027;53.560;10.062;2022-11-20T06:52:35;9.30;1.00
9973;DHT22;5027;53.560;10.062;2022-11-20T06:55:09;9.30;1.00
9973;DHT22;5027;53.560;10.062;2022-11-20T06:57:35;9.30;1.00
9973;DHT22;5027;53.560;10.062;2022-11-20T07:00:02;9.30;1.00
9973;DHT22;5027;53.560;10.062;2022-11-20T07:02:29;9.20;1.00
9973;DHT22;5027;53.560;10.062;2022-11-20T07:04:55;9.20;1.00
9973;DHT22;5027;53.560;10.062;2022-11-20T07:07:22;9.20;1.00
9973;DHT22;5027;53.560;10.062;2022-11-20T07:09:49;9.20;1.00
9973;DHT22;5027;53.560;10.062;2022-11-20T07:12:15;9.10;1.00
9973;DHT22;5027;53.560;10.062;2022-11-20T07:14:42;9.10;1.00
9973;DHT22;5027;53.560;10.062;2022-11-20T07:17:09;9.20;1.00
9973;DHT22;5027;53.560;10.062;2022-11-20T07:19:35;9.20;1.00
9973;DHT22;5027;53.560;10.062;2022-11-20T07:22:02;9.20;1.00
9973;DHT22;5027;53.560;10.062;2022-11-20T07:24:28;9.10;1.00
9973;DHT22;5027;53.560;10.062;2022-11-20T07:26:55;9.10;1.00
9973;DHT22;5027;53.560;10.062;2022-11-20T07:29:22;9.20;1.00
9973;DHT22;5027;53.560;10.062;2022-11-20T07:31:49;9.20;1.00
9973;DHT22;5027;53.560;10.062;2022-11-20T07:34:15;9.20;1.00
9973;DHT22;5027;53.560;10.062;2022-11-20T07:36:42;9.20;1.00
9973;DHT22;5027;53.560;10.062;2022-11-20T07:39:09;9.30;1.00
9973;DHT22;5027;53.560;10.062;2022-11-20T07:41:35;9.30;1.00
9973;DHT22;5027;53.560;10.062;2022-11-20T07:44:02;9.30;1.00
9973;DHT22;5027;53.560;10.062;2022-11-20T07:46:28;9.40;1.00
9973;DHT22;5027;53.560;10.062;2022-11-20T07:48:55;9.50;1.00
9973;DHT22;5027;53.560;10.062;2022-11-20T07:51:22;9.50;1.00
9973;DHT22;5027;53.560;10.062;2022-11-20T07:53:51;9.60;1.00
9973;DHT22;5027;53.560;10.062;2022-11-20T07:56:18;9.50;1.00
9973;DHT22;5027;53.560;10.062;2022-11-20T07:58:45;9.50;1.00
9973;DHT22;5027;53.560;10.062;2022-11-20T08:01:11;9.50;1.00
9973;DHT22;5027;53.560;10.062;2022-11-20T08:03:38;9.40;1.00
9973;DHT22;5027;53.560;10.062;2022-11-20T08:06:05;9.30;1.00
9973;DHT22;5027;53.560;10.062;2022-11-20T08:08:32;9.30;1.00
9973;DHT22;5027;53.560;10.062;2022-11-20T08:11:00;9.10;1.00
9973;DHT22;5027;53.560;10.062;2022-11-20T08:13:52;9.10;1.00
9973;DHT22;5027;53.560;10.062;2022-11-20T08:16:48;9.10;1.00
9973;DHT22;5027;53.560;10.062;2022-11-20T08:19:18;9.20;1.00
9973;DHT22;5027;53.560;10.062;2022-11-20T08:21:45;9.20;1.00
9973;DHT22;5027;53.560;10.062;2022-11-20T08:24:12;9.20;1.00
9973;DHT22;5027;53.560;10.062;2022-11-20T08:26:39;9.20;1.00
9973;DHT22;5027;53.560;10.062;2022-11-20T08:29:07;9.20;1.00
9973;DHT22;5027;53.560;10.062;2022-11-20T08:31:33;9.20;1.00
9973;DHT22;5027;53.560;10.062;2022-11-20T08:34:00;9.20;1.00
9973;DHT22;5027;53.560;10.062;2022-11-20T08:36:33;9.20;1.00
9973;DHT22;5027;53.560;10.062;2022-11-20T08:39:01;9.20;1.00
9973;DHT22;5027;53.560;10.062;2022-11-20T08:41:29;9.20;1.00
9973;DHT22;5027;53.560;10.062;2022-11-20T08:44:00;9.30;1.00
9973;DHT22;5027;53.560;10.062;2022-11-20T08:46:33;9.40;1.00
9973;DHT22;5027;53.560;10.062;2022-11-20T08:49:00;9.50;1.00
9973;DHT22;5027;53.560;10.062;2022-11-20T08:51:27;9.40;1.00
9973;DHT22;5027;53.560;10.062;2022-11-20T08:53:53;9.60;1.00
9973;DHT22;5027;53.560;10.062;2022-11-20T08:56:20;9.50;1.00
9973;DHT22;5027;53.560;10.062;2022-11-20T08:58:46;9.40;1.00
9973;DHT22;5027;53.560;10.062;2022-11-20T09:01:33;9.40;1.00
9973;DHT22;5027;53.560;10.062;2022-11-20T09:04:00;9.30;1.00
9973;DHT22;5027;53.560;10.062;2022-11-20T09:06:27;9.40;1.00
9973;DHT22;5027;53.560;10.062;2022-11-20T09:08:53;9.40;1.00
9973;DHT22;5027;53.560;10.062;2022-11-20T09:11:21;9.40;1.00
9973;DHT22;5027;53.560;10.062;2022-11-20T09:13:48;9.40;1.00
9973;DHT22;5027;53.560;10.062;2022-11-20T09:16:15;9.40;1.00
9973;DHT22;5027;53.560;10.062;2022-11-20T09:18:42;9.40;1.00
9973;DHT22;5027;53.560;10.062;2022-11-20T09:21:10;9.40;1.00
9973;DHT22;5027;53.560;10.062;2022-11-20T09:23:38;9.40;1.00
9973;DHT22;5027;53.560;10.062;2022-11-20T09:26:10;9.40;1.00
9973;DHT22;5027;53.560;10.062;2022-11-20T09:28:37;9.40;1.00
9973;DHT22;5027;53.560;10.062;2022-11-20T09:31:08;9.40;1.00
9973;DHT22;5027;53.560;10.062;2022-11-20T09:33:39;9.30;1.00
9973;DHT22;5027;53.560;10.062;2022-11-20T09:36:06;9.20;1.00
9973;DHT22;5027;53.560;10.062;2022-11-20T09:38:33;9.10;1.00
9973;DHT22;5027;53.560;10.062;2022-11-20T09:41:05;9.10;1.00
9973;DHT22;5027;53.560;10.062;2022-11-20T09:44:03;9.10;1.00
9973;DHT22;5027;53.560;10.062;2022-11-20T09:47:14;9.10;1.00
9973;DHT22;5027;53.560;10.062;2022-11-20T09:50:25;9.00;1.00
9973;DHT22;5027;53.560;10.062;2022-11-20T09:53:12;9.20;1.00
9973;DHT22;5027;53.560;10.062;2022-11-20T09:55:39;9.30;1.00
9973;DHT22;5027;53.560;10.062;2022-11-20T09:58:12;9.20;1.00
9973;DHT22;5027;53.560;10.062;2022-11-20T10:00:41;9.50;1.00
9973;DHT22;5027;53.560;10.062;2022-11-20T10:03:17;9.50;1.00
9973;DHT22;5027;53.560;10.062;2022-11-20T10:05:53;9.40;1.00
9973;DHT22;5027;53.560;10.062;2022-11-20T10:08:44;9.40;1.00
9973;DHT22;5027;53.560;10.062;2022-11-20T10:11:41;9.60;1.00
9973;DHT22;5027;53.560;10.062;2022-11-20T10:17:00;9.60;1.00
9973;DHT22;5027;53.560;10.062;2022-11-20T10:19:54;9.70;1.00
9973;DHT22;5027;53.560;10.062;2022-11-20T10:25:18;9.20;1.00
9973;DHT22;5027;53.560;10.062;2022-11-20T10:30:40;9.10;1.00
9973;DHT22;5027;53.560;10.062;2022-11-20T10:33:21;9.20;1.00
9973;DHT22;5027;53.560;10.062;2022-11-20T10:36:27;9.10;1.00
9973;DHT22;5027;53.560;10.062;2022-11-20T10:38:54;9.10;1.00
9973;DHT22;5027;53.560;10.062;2022-11-20T10:41:28;9.10;1.00
9973;DHT22;5027;53.560;10.062;2022-11-20T10:44:05;9.10;1.00
9973;DHT22;5027;53.560;10.062;2022-11-20T10:46:43;9.20;1.00
9973;DHT22;5027;53.560;10.062;2022-11-20T10:49:15;9.10;1.00
9973;DHT22;5027;53.560;10.062;2022-11-20T10:51:54;9.20;1.00
9973;DHT22;5027;53.560;10.062;2022-11-20T11:00:22;9.40;1.00
9973;DHT22;5027;53.560;10.062;2022-11-20T11:02:49;9.50;1.00
9973;DHT22;5027;53.560;10.062;2022-11-20T11:08:18;9.50;1.00
9973;DHT22;5027;53.560;10.062;2022-11-20T11:10:57;9.60;1.00
9973;DHT22;5027;53.560;10.062;2022-11-20T11:13:26;9.60;1.00
9973;DHT22;5027;53.560;10.062;2022-11-20T11:15:53;9.70;1.00
9973;DHT22;5027;53.560;10.062;2022-11-20T11:18:31;9.60;1.00
9973;DHT22;5027;53.560;10.062;2022-11-20T11:21:00;9.60;1.00
9973;DHT22;5027;53.560;10.062;2022-11-20T11:23:43;9.70;1.00
9973;DHT22;5027;53.560;10.062;2022-11-20T11:26:58;9.70;1.00
9973;DHT22;5027;53.560;10.062;2022-11-20T11:29:25;9.60;1.00
9973;DHT22;5027;53.560;10.062;2022-11-20T11:32:14;9.60;1.00
9973;DHT22;5027;53.560;10.062;2022-11-20T11:34:41;9.60;1.00
9973;DHT22;5027;53.560;10.062;2022-11-20T11:37:17;9.60;1.00
9973;DHT22;5027;53.560;10.062;2022-11-20T11:39:44;9.60;1.00
9973;DHT22;5027;53.560;10.062;2022-11-20T11:42:20;9.50;1.00
9973;DHT22;5027;53.560;10.062;2022-11-20T11:44:48;9.50;1.00
9973;DHT22;5027;53.560;10.062;2022-11-20T11:52:46;9.50;1.00
9973;DHT22;5027;53.560;10.062;2022-11-20T11:55:36;9.50;1.00
9973;DHT22;5027;53.560;10.062;2022-11-20T11:58:22;9.50;1.00
9973;DHT22;5027;53.560;10.062;2022-11-20T12:01:17;9.50;1.00
9973;DHT22;5027;53.560;10.062;2022-11-20T12:04:12;9.50;1.00
9973;DHT22;5027;53.560;10.062;2022-11-20T12:06:44;9.50;1.00
9973;DHT22;5027;53.560;10.062;2022-11-20T12:09:12;9.60;1.00
9973;DHT22;5027;53.560;10.062;2022-11-20T12:11:58;9.50;1.00
9973;DHT22;5027;53.560;10.062;2022-11-20T12:14:34;9.50;1.00
9973;DHT22;5027;53.560;10.062;2022-11-20T12:17:03;9.50;1.00
9973;DHT22;5027;53.560;10.062;2022-11-20T12:19:31;9.50;1.00
9973;DHT22;5027;53.560;10.062;2022-11-20T12:22:21;9.40;1.00
9973;DHT22;5027;53.560;10.062;2022-11-20T12:30:38;9.40;1.00
9973;DHT22;5027;53.560;10.062;2022-11-20T12:43:57;9.50;1.00
9973;DHT22;5027;53.560;10.062;2022-11-20T12:46:49;9.50;1.00
9973;DHT22;5027;53.560;10.062;2022-11-20T13:00:51;9.70;1.00
9973;DHT22;5027;53.560;10.062;2022-11-20T13:03:41;9.90;1.00
9973;DHT22;5027;53.560;10.062;2022-11-20T13:06:18;9.80;1.00
9973;DHT22;5027;53.560;10.062;2022-11-20T13:08:53;9.70;1.00
9973;DHT22;5027;53.560;10.062;2022-11-20T13:11:32;9.70;1.00
9973;DHT22;5027;53.560;10.062;2022-11-20T13:14:37;9.70;1.00
9973;DHT22;5027;53.560;10.062;2022-11-20T13:17:24;9.60;1.00
9973;DHT22;5027;53.560;10.062;2022-11-20T13:19:56;9.60;1.00
9973;DHT22;5027;53.560;10.062;2022-11-20T13:25:35;9.60;1.00
9973;DHT22;5027;53.560;10.062;2022-11-20T13:30:37;9.60;1.00
9973;DHT22;5027;53.560;10.062;2022-11-20T13:33:37;9.60;1.00
9973;DHT22;5027;53.560;10.062;2022-11-20T13:36:22;9.60;1.00
9973;DHT22;5027;53.560;10.062;2022-11-20T13:38:51;9.60;1.00
9973;DHT22;5027;53.560;10.062;2022-11-20T13:41:35;9.60;1.00
9973;DHT22;5027;53.560;10.062;2022-11-20T13:44:13;9.60;1.00
9973;DHT22;5027;53.560;10.062;2022-11-20T13:46:44;9.60;1.00
9973;DHT22;5027;53.560;10.062;2022-11-20T13:49:31;9.60;1.00
9973;DHT22;5027;53.560;10.062;2022-11-20T13:55:12;9.60;1.00
9973;DHT22;5027;53.560;10.062;2022-11-20T14:00:52;9.60;1.00
9973;DHT22;5027;53.560;10.062;2022-11-20T14:03:23;9.60;1.00
9973;DHT22;5027;53.560;10.062;2022-11-20T14:08:54;9.50;1.00
9973;DHT22;5027;53.560;10.062;2022-11-20T14:13:59;9.60;1.00
9973;DHT22;5027;53.560;10.062;2022-11-20T14:16:28;9.50;1.00
9973;DHT22;5027;53.560;10.062;2022-11-20T14:18:57;9.50;1.00
9973;DHT22;5027;53.560;10.062;2022-11-20T14:21:29;9.60;1.00
9973;DHT22;5027;53.560;10.062;2022-11-20T14:24:06;9.60;1.00
9973;DHT22;5027;53.560;10.062;2022-11-20T14:26:33;9.60;1.00
9973;DHT22;5027;53.560;10.062;2022-11-20T14:29:00;9.60;1.00
9973;DHT22;5027;53.560;10.062;2022-11-20T14:31:28;9.50;1.00
9973;DHT22;5027;53.560;10.062;2022-11-20T14:33:55;9.50;1.00
9973;DHT22;5027;53.560;10.062;2022-11-20T14:36:24;9.50;1.00
9973;DHT22;5027;53.560;10.062;2022-11-20T14:38:53;9.50;1.00
9973;DHT22;5027;53.560;10.062;2022-11-20T14:41:23;9.60;1.00
9973;DHT22;5027;53.560;10.062;2022-11-20T14:43:54;9.50;1.00
9973;DHT22;5027;53.560;10.062;2022-11-20T14:46:23;9.50;1.00
9973;DHT22;5027;53.560;10.062;2022-11-20T14:48:54;9.50;1.00
9973;DHT22;5027;53.560;10.062;2022-11-20T14:54:14;9.50;1.00
9973;DHT22;5027;53.560;10.062;2022-11-20T14:56:41;9.50;1.00
9973;DHT22;5027;53.560;10.062;2022-11-20T14:59:08;9.60;1.00
9973;DHT22;5027;53.560;10.062;2022-11-20T15:01:35;9.60;1.00
9973;DHT22;5027;53.560;10.062;2022-11-20T15:04:20;9.60;1.00
9973;DHT22;5027;53.560;10.062;2022-11-20T15:06:52;9.60;1.00
9973;DHT22;5027;53.560;10.062;2022-11-20T15:09:19;9.60;1.00
9973;DHT22;5027;53.560;10.062;2022-11-20T15:11:58;9.60;1.00
9973;DHT22;5027;53.560;10.062;2022-11-20T15:14:27;9.60;1.00
9973;DHT22;5027;53.560;10.062;2022-11-20T15:16:55;9.60;1.00
9973;DHT22;5027;53.560;10.062;2022-11-20T15:19:25;9.50;1.00
9973;DHT22;5027;53.560;10.062;2022-11-20T15:21:55;9.50;1.00
9973;DHT22;5027;53.560;10.062;2022-11-20T15:24:22;9.60;1.00
9973;DHT22;5027;53.560;10.062;2022-11-20T15:26:49;9.60;1.00
9973;DHT22;5027;53.560;10.062;2022-11-20T15:29:16;9.60;1.00
9973;DHT22;5027;53.560;10.062;2022-11-20T15:31:45;9.60;1.00
9973;DHT22;5027;53.560;10.062;2022-11-20T15:34:16;9.50;1.00
9973;DHT22;5027;53.560;10.062;2022-11-20T15:36:43;9.50;1.00
9973;DHT22;5027;53.560;10.062;2022-11-20T15:39:10;9.50;1.00
9973;DHT22;5027;53.560;10.062;2022-11-20T15:41:38;9.50;1.00
9973;DHT22;5027;53.560;10.062;2022-11-20T15:44:08;9.50;1.00
9973;DHT22;5027;53.560;10.062;2022-11-20T15:46:37;9.50;1.00
9973;DHT22;5027;53.560;10.062;2022-11-20T15:49:11;9.50;1.00
9973;DHT22;5027;53.560;10.062;2022-11-20T15:51:41;9.50;1.00
9973;DHT22;5027;53.560;10.062;2022-11-20T15:54:18;9.40;1.00
9973;DHT22;5027;53.560;10.062;2022-11-20T15:56:48;9.40;1.00
9973;DHT22;5027;53.560;10.062;2022-11-20T15:59:15;9.50;1.00
9973;DHT22;5027;53.560;10.062;2022-11-20T16:01:42;9.50;1.00
9973;DHT22;5027;53.560;10.062;2022-11-20T16:04:13;9.50;1.00
9973;DHT22;5027;53.560;10.062;2022-11-20T16:06:40;9.50;1.00
9973;DHT22;5027;53.560;10.062;2022-11-20T16:09:07;9.50;1.00
9973;DHT22;5027;53.560;10.062;2022-11-20T16:11:35;9.40;1.00
9973;DHT22;5027;53.560;10.062;2022-11-20T16:14:05;9.40;1.00
9973;DHT22;5027;53.560;10.062;2022-11-20T16:16:51;9.40;1.00
9973;DHT22;5027;53.560;10.062;2022-11-20T16:19:18;9.50;1.00
9973;DHT22;5027;53.560;10.062;2022-11-20T16:21:45;9.40;1.00
9973;DHT22;5027;53.560;10.062;2022-11-20T16:24:13;9.40;1.00
9973;DHT22;5027;53.560;10.062;2022-11-20T16:26:40;9.40;1.00
9973;DHT22;5027;53.560;10.062;2022-11-20T16:29:07;9.40;1.00
9973;DHT22;5027;53.560;10.062;2022-11-20T16:31:34;9.40;1.00
9973;DHT22;5027;53.560;10.062;2022-11-20T16:34:04;9.40;1.00
9973;DHT22;5027;53.560;10.062;2022-11-20T16:36:41;9.40;1.00
9973;DHT22;5027;53.560;10.062;2022-11-20T16:39:10;9.40;1.00
9973;DHT22;5027;53.560;10.062;2022-11-20T16:41:37;9.50;1.00
9973;DHT22;5027;53.560;10.062;2022-11-20T16:44:09;9.50;1.00
9973;DHT22;5027;53.560;10.062;2022-11-20T16:46:36;9.40;1.00
9973;DHT22;5027;53.560;10.062;2022-11-20T16:49:11;9.40;1.00
9973;DHT22;5027;53.560;10.062;2022-11-20T16:51:38;9.40;1.00
9973;DHT22;5027;53.560;10.062;2022-11-20T16:54:06;9.40;1.00
9973;DHT22;5027;53.560;10.062;2022-11-20T16:56:33;9.50;1.00
9973;DHT22;5027;53.560;10.062;2022-11-20T16:59:00;9.50;1.00
9973;DHT22;5027;53.560;10.062;2022-11-20T17:01:28;9.40;1.00
9973;DHT22;5027;53.560;10.062;2022-11-20T17:03:58;9.40;1.00
9973;DHT22;5027;53.560;10.062;2022-11-20T17:06:27;9.50;1.00
9973;DHT22;5027;53.560;10.062;2022-11-20T17:08:55;9.50;1.00
9973;DHT22;5027;53.560;10.062;2022-11-20T17:11:23;9.50;1.00
9973;DHT22;5027;53.560;10.062;2022-11-20T17:13:50;9.50;1.00
9973;DHT22;5027;53.560;10.062;2022-11-20T17:16:19;9.40;1.00
9973;DHT22;5027;53.560;10.062;2022-11-20T17:18:46;9.40;1.00
9973;DHT22;5027;53.560;10.062;2022-11-20T17:21:16;9.50;1.00
9973;DHT22;5027;53.560;10.062;2022-11-20T17:23:44;9.50;1.00
9973;DHT22;5027;53.560;10.062;2022-11-20T17:26:16;9.50;1.00
9973;DHT22;5027;53.560;10.062;2022-11-20T17:28:59;9.50;1.00
9973;DHT22;5027;53.560;10.062;2022-11-20T17:31:27;9.50;1.00
9973;DHT22;5027;53.560;10.062;2022-11-20T17:33:55;9.50;1.00
9973;DHT22;5027;53.560;10.062;2022-11-20T17:36:21;9.50;1.00
9973;DHT22;5027;53.560;10.062;2022-11-20T17:38:48;9.50;1.00
9973;DHT22;5027;53.560;10.062;2022-11-20T17:41:20;9.50;1.00
9973;DHT22;5027;53.560;10.062;2022-11-20T17:43:48;9.50;1.00
9973;DHT22;5027;53.560;10.062;2022-11-20T17:46:19;9.50;1.00
9973;DHT22;5027;53.560;10.062;2022-11-20T17:48:47;9.50;1.00
9973;DHT22;5027;53.560;10.062;2022-11-20T17:51:26;9.50;1.00
9973;DHT22;5027;53.560;10.062;2022-11-20T17:53:56;9.50;1.00
9973;DHT22;5027;53.560;10.062;2022-11-20T17:56:24;9.50;1.00
9973;DHT22;5027;53.560;10.062;2022-11-20T17:59:11;9.50;1.00
9973;DHT22;5027;53.560;10.062;2022-11-20T18:01:39;9.40;1.00